Terminal Aerodrome Forecast
Issued by NWS

Home | Current Version | Previous Version | Text Only | Print | Product List | Glossary On
Versions: 1 2 3 4 5 6 7 8 9 10 11 12 13
280
FTUS45 KABQ 210531
TAFTCC
TAF
KTCC 210531Z 2106/2206 28012KT P6SM BKN250
     FM211200 32010G17KT P6SM SCT250
     FM211700 04020G30KT P6SM FEW250
     FM212200 05013KT P6SM SCT060
     FM220100 04006KT P6SM SCT050=

USA.gov is the U.S. government's official web portal to all federal, state and local government web resources and services.